Auroraville, Wisconsin
Current Conditions -  °F | °C
As of 11:23 AM on Tuesday 21 Oct 2014 (Local Time) from KY50 Reporting Station
Overcast Overcast  
Wind Chill: 41°   Ceiling: 2300
Heat Index: 46°   Visibility: 10mi
Dew Point: 36°   Wind: 10mph
Humidity: 66%   Direction: 80°E
Pressure: 30.26"   Gusts: NA
Location:  43.9938°N, 88.9686°W
Report Text: KY50 211623Z AUTO 08009KT 10SM SCT001 OVC023 08/02 A3026 RMK AO2 TSNO
Loading
Personal Weather Stations






























Interactive Weather Map New forecast layout! Learn more

10-Day Weather Forecast

Advertisements
Track Severe Weather on mobile